Time;durP1;ratioP1;P1;durP2;ratioP2;P2;SDS_P1;SDS_P2;PMS_P1;PMS_P2;Temp;Humidity;BMP_temperature;BMP_pressure;BME280_temperature;BME280_humidity;BME280_pressure;Samples;Min_cycle;Max_cycle;Signal;HPM_P1;HPM_P2
2022/03/09 00:00:13;;;;;;;;;63.50;50.25;;;;;8.92;43.30;101113.22;5055475;28;45627;-61
2022/03/09 00:02:38;;;;;;;;;71.00;57.25;;;;;8.83;44.01;101096.78;5054929;28;45494;-59
2022/03/09 00:05:04;;;;;;;;;71.25;56.25;;;;;8.88;43.46;101104.56;5055494;28;45356;-64
2022/03/09 00:07:29;;;;;;;;;65.25;53.25;;;;;8.90;43.86;101107.19;5070017;28;45596;-63
2022/03/09 00:09:55;;;;;;;;;64.25;53.00;;;;;8.89;43.70;101108.06;5066656;28;45422;-61
2022/03/09 00:12:21;;;;;;;;;71.00;56.00;;;;;8.85;43.65;101099.38;5074613;28;45567;-59
2022/03/09 00:14:46;;;;;;;;;65.75;53.25;;;;;8.88;43.93;101112.44;5055371;28;45521;-60
2022/03/09 00:17:13;;;;;;;;;68.75;54.00;;;;;8.88;43.71;101107.19;5055637;28;45987;-58
2022/03/09 00:19:38;;;;;;;;;70.50;55.75;;;;;8.89;43.56;101106.28;5055589;28;45550;-60
2022/03/09 00:22:04;;;;;;;;;62.75;52.25;;;;;8.89;43.64;101110.69;5055146;28;45420;-57
2022/03/09 00:24:30;;;;;;;;;71.00;55.75;;;;;8.90;43.99;101112.41;5055433;28;45388;-57
2022/03/09 00:26:55;;;;;;;;;68.25;54.50;;;;;8.95;43.60;101111.44;5056085;28;45466;-61
2022/03/09 00:29:20;;;;;;;;;67.75;55.00;;;;;8.95;43.88;101110.56;5054863;28;45581;-58
2022/03/09 00:31:46;;;;;;;;;67.75;54.25;;;;;8.95;43.87;101121.06;5070445;28;46429;-58
2022/03/09 00:34:11;;;;;;;;;72.50;56.25;;;;;8.91;44.08;101122.88;5065143;27;45489;-57
2022/03/09 00:36:37;;;;;;;;;67.25;54.00;;;;;8.90;44.07;101121.16;5055157;27;45432;-55
2022/03/09 00:39:02;;;;;;;;;74.25;55.25;;;;;8.90;43.80;101125.53;5055497;28;45603;-60
2022/03/09 00:41:28;;;;;;;;;69.75;56.25;;;;;8.88;43.74;101119.44;5055212;28;45802;-58
2022/03/09 00:43:53;;;;;;;;;67.25;56.25;;;;;8.88;43.98;101125.56;5055782;28;45375;-57
2022/03/09 00:46:18;;;;;;;;;70.00;53.75;;;;;8.86;43.65;101124.72;5055132;28;45488;-60
2022/03/09 00:48:44;;;;;;;;;65.25;51.25;;;;;8.84;43.65;101116.03;5054864;28;45584;-60
2022/03/09 00:51:09;;;;;;;;;70.50;55.25;;;;;8.84;43.90;101126.53;5056585;28;45634;-56
2022/03/09 00:53:34;;;;;;;;;71.50;56.25;;;;;8.85;43.79;101118.59;5058440;28;45892;-54
2022/03/09 00:56:00;;;;;;;;;71.00;56.25;;;;;8.84;43.67;101121.28;5059044;28;45938;-55
2022/03/09 00:58:25;;;;;;;;;59.50;47.00;;;;;8.89;43.24;101134.28;5058631;28;45421;-59
2022/03/09 01:00:51;;;;;;;;;70.25;56.25;;;;;8.89;43.33;101139.53;5058888;28;45639;-58
2022/03/09 01:03:17;;;;;;;;;73.75;57.50;;;;;8.90;43.92;101133.41;5058940;28;45442;-58
2022/03/09 01:05:42;;;;;;;;;66.75;53.25;;;;;8.91;43.32;101135.97;5073601;28;45427;-56
2022/03/09 01:08:08;;;;;;;;;67.75;52.75;;;;;8.93;43.60;101136.81;5075807;27;45641;-62
2022/03/09 01:10:34;;;;;;;;;66.75;52.50;;;;;8.95;43.65;101136.81;5075361;28;48086;-58
2022/03/09 01:12:59;;;;;;;;;74.50;56.25;;;;;8.95;43.87;101135.03;5058305;28;45487;-60
2022/03/09 01:15:25;;;;;;;;;66.00;54.00;;;;;8.95;43.51;101134.19;5065803;28;45496;-55
2022/03/09 01:17:51;;;;;;;;;67.00;52.25;;;;;8.97;43.58;101142.88;5074436;28;45472;-52
2022/03/09 01:20:16;;;;;;;;;68.50;53.75;;;;;8.98;43.67;101144.59;5070506;28;45476;-53
2022/03/09 01:22:41;;;;;;;;;68.00;53.25;;;;;9.00;43.59;101151.56;5078498;27;45324;-62
2022/03/09 01:25:08;;;;;;;;;63.75;53.00;;;;;9.02;43.40;101146.25;5069113;28;45627;-54
2022/03/09 01:27:33;;;;;;;;;65.25;51.25;;;;;9.01;43.71;101144.53;5058116;28;45499;-55
2022/03/09 01:29:59;;;;;;;;;62.75;51.00;;;;;9.03;43.92;101148.00;5057841;28;46137;-59
2022/03/09 01:32:24;;;;;;;;;64.25;50.75;;;;;9.05;43.84;101144.47;5057967;27;45531;-61
2022/03/09 01:34:50;;;;;;;;;65.75;53.50;;;;;9.05;43.95;101144.47;5059044;28;45719;-59
2022/03/09 01:37:15;;;;;;;;;67.00;54.00;;;;;9.04;43.98;101141.84;5058391;28;45577;-58
2022/03/09 01:39:40;;;;;;;;;67.75;53.75;;;;;9.06;44.26;101151.44;5057754;28;45449;-57
2022/03/09 01:42:06;;;;;;;;;63.00;51.25;;;;;9.09;44.39;101154.88;5058206;28;45459;-61
2022/03/09 01:44:32;;;;;;;;;62.75;51.75;;;;;9.03;44.71;101142.75;5058502;28;45450;-58
2022/03/09 01:46:57;;;;;;;;;69.25;55.00;;;;;9.05;44.33;101144.47;5058346;28;45417;-57
2022/03/09 01:49:24;;;;;;;;;66.50;53.25;;;;;9.04;44.74;101131.34;5057619;28;45808;-55
2022/03/09 01:51:52;;;;;;;;;65.25;51.75;;;;;9.07;45.04;101136.53;5063684;28;45406;-59
2022/03/09 01:54:18;;;;;;;;;59.50;49.00;;;;;9.05;45.18;101131.34;5058281;28;45465;-59
2022/03/09 01:56:44;;;;;;;;;68.00;53.75;;;;;9.05;45.06;101131.34;5057955;28;45426;-60
2022/03/09 01:59:11;;;;;;;;;60.00;49.75;;;;;9.05;44.93;101138.31;5057780;28;46118;-55
2022/03/09 02:01:37;;;;;;;;;65.25;50.25;;;;;9.03;46.23;101135.75;5064927;27;45613;-58
2022/03/09 02:04:04;;;;;;;;;58.25;48.75;;;;;9.01;46.18;101136.69;5065236;28;45593;-56
2022/03/09 02:06:32;;;;;;;;;67.75;54.00;;;;;9.01;46.14;101126.19;5076439;28;45579;-57
2022/03/09 02:11:42;;;;;;;;;64.00;52.00;;;;;8.99;46.61;101138.47;5057407;28;45556;-57
2022/03/09 02:14:24;;;;;;;;;66.00;53.00;;;;;8.95;47.18;101124.53;5058716;27;45547;-58
2022/03/09 02:16:50;;;;;;;;;69.00;54.00;;;;;8.93;47.26;101130.72;5072045;28;45465;-59
2022/03/09 02:19:15;;;;;;;;;66.25;53.25;;;;;8.93;47.98;101126.31;5057490;28;45435;-57
2022/03/09 02:21:41;;;;;;;;;70.00;55.25;;;;;8.90;48.00;101120.28;5057420;28;45405;-57
2022/03/09 02:24:07;;;;;;;;;50.00;40.25;;;;;8.90;47.47;101123.78;5071747;28;45448;-60
2022/03/09 02:26:32;;;;;;;;;70.50;56.25;;;;;8.89;47.83;101124.66;5067262;27;45426;-54
2022/03/09 02:28:58;;;;;;;;;66.50;55.75;;;;;8.88;47.67;101130.81;5066674;28;46313;-54
2022/03/09 02:31:23;;;;;;;;;69.25;54.00;;;;;8.89;47.90;101122.03;5056488;28;51807;-58
2022/03/09 02:33:48;;;;;;;;;72.75;56.00;;;;;8.88;47.37;101138.66;5076053;28;45432;-59
2022/03/09 02:36:13;;;;;;;;;73.50;57.00;;;;;8.85;47.48;101134.34;5077527;28;45618;-61
2022/03/09 02:38:39;;;;;;;;;69.00;54.75;;;;;8.83;47.72;101130.88;5076847;27;45553;-55
2022/03/09 02:41:04;;;;;;;;;68.50;54.50;;;;;8.81;47.81;101129.19;5069367;28;45444;-56
2022/03/09 02:43:29;;;;;;;;;69.25;55.00;;;;;8.79;47.63;101128.38;5067076;28;45436;-56
2022/03/09 02:45:55;;;;;;;;;69.25;54.25;;;;;8.79;47.33;101126.59;5057162;28;45573;-59
2022/03/09 02:48:20;;;;;;;;;69.75;57.00;;;;;8.77;47.72;101130.16;5070062;28;46804;-55
2022/03/09 02:50:46;;;;;;;;;65.00;53.75;;;;;8.78;47.70;101126.63;5065193;28;45516;-57
2022/03/09 02:53:11;;;;;;;;;72.50;54.50;;;;;8.76;47.91;101137.16;5076555;28;45460;-56
2022/03/09 02:55:36;;;;;;;;;68.50;52.00;;;;;8.76;48.35;101128.44;5076669;28;46605;-56
2022/03/09 02:58:02;;;;;;;;;72.00;55.00;;;;;8.73;48.04;101126.72;5071399;27;46470;-59
2022/03/09 03:00:27;;;;;;;;;67.75;53.75;;;;;8.73;48.65;101134.59;5074128;28;45540;-53
2022/03/09 03:02:53;;;;;;;;;64.00;53.00;;;;;8.74;48.84;101138.09;5069396;28;45382;-60
2022/03/09 03:05:18;;;;;;;;;61.50;50.00;;;;;8.75;49.08;101143.28;5056551;28;45355;-56
2022/03/09 03:07:43;;;;;;;;;62.25;52.00;;;;;8.73;48.97;101146.81;5069227;28;45518;-62
2022/03/09 03:10:09;;;;;;;;;55.00;44.25;;;;;8.74;49.24;101153.81;5077260;28;45483;-54
2022/03/09 03:12:34;;;;;;;;;49.00;35.75;;;;;8.75;49.55;101153.78;5057814;28;45516;-56
2022/03/09 03:15:00;;;;;;;;;62.00;49.75;;;;;8.75;49.72;101143.28;5055921;28;45377;-58
2022/03/09 03:17:25;;;;;;;;;60.75;51.00;;;;;8.76;49.03;101152.03;5057155;28;45457;-56
2022/03/09 03:19:50;;;;;;;;;64.00;52.75;;;;;8.74;49.12;101145.94;5056180;28;45632;-60
2022/03/09 03:22:16;;;;;;;;;59.00;49.75;;;;;8.73;49.04;101145.09;5056538;28;45363;-59
2022/03/09 03:24:41;;;;;;;;;67.50;52.25;;;;;8.71;49.67;101143.38;5056192;28;45380;-53
2022/03/09 03:27:06;;;;;;;;;59.00;43.75;;;;;8.73;49.92;101141.56;5071306;28;45391;-56
2022/03/09 03:29:32;;;;;;;;;64.25;52.00;;;;;8.74;49.57;101143.31;5074555;28;45461;-54
2022/03/09 03:31:57;;;;;;;;;67.50;50.75;;;;;8.76;49.71;101146.78;5075291;28;45437;-58
2022/03/09 03:34:22;;;;;;;;;61.75;50.25;;;;;8.68;50.26;101131.19;5065938;28;45583;-55
2022/03/09 03:36:48;;;;;;;;;55.00;45.75;;;;;8.73;49.97;101144.19;5071238;28;46204;-56
2022/03/09 03:39:14;;;;;;;;;58.50;44.50;;;;;8.72;49.98;101132.00;5075046;27;45591;-57
2022/03/09 03:41:40;;;;;;;;;61.75;49.75;;;;;8.73;50.90;101134.59;5062589;28;45464;-58
2022/03/09 03:44:05;;;;;;;;;58.25;47.75;;;;;8.73;50.90;101144.19;5072947;28;45599;-55
2022/03/09 03:46:31;;;;;;;;;58.25;48.00;;;;;8.75;50.65;101137.19;5066921;28;46642;-57
2022/03/09 03:48:56;;;;;;;;;58.75;49.00;;;;;8.73;51.57;101129.34;5057416;27;45536;-55
2022/03/09 03:51:21;;;;;;;;;55.25;44.50;;;;;8.71;51.76;101138.16;5056832;28;45479;-62
2022/03/09 03:53:47;;;;;;;;;61.25;50.50;;;;;8.68;51.58;101135.56;5055798;28;45513;-54
2022/03/09 03:56:12;;;;;;;;;53.25;45.50;;;;;8.70;51.32;101132.00;5056063;27;45420;-59
2022/03/09 03:58:37;;;;;;;;;56.50;47.00;;;;;8.66;52.33;101127.72;5056783;28;45526;-59
2022/03/09 04:01:03;;;;;;;;;62.25;48.25;;;;;8.69;52.18;101134.69;5055650;28;45514;-60
2022/03/09 04:03:28;;;;;;;;;55.25;42.75;;;;;8.65;52.46;101147.00;5056112;28;45394;-55
2022/03/09 04:05:53;;;;;;;;;58.00;47.50;;;;;8.56;53.31;101140.13;5056008;28;45897;-59
2022/03/09 04:08:18;;;;;;;;;48.75;43.25;;;;;8.57;53.77;101147.13;5063271;28;45537;-56
2022/03/09 04:10:44;;;;;;;;;54.25;42.00;;;;;8.53;54.54;101148.06;5055473;28;45509;-54
2022/03/09 04:13:09;;;;;;;;;54.50;43.00;;;;;8.55;54.14;101150.66;5055793;27;45422;-58
2022/03/09 04:15:34;;;;;;;;;52.25;43.50;;;;;8.55;54.29;101148.91;5055806;28;45382;-58
2022/03/09 04:18:00;;;;;;;;;46.75;43.00;;;;;8.56;54.52;101141.91;5055714;28;45450;-53
2022/03/09 04:20:25;;;;;;;;;53.50;43.00;;;;;8.56;54.78;101142.75;5056002;28;45366;-56
2022/03/09 04:22:51;;;;;;;;;55.00;44.00;;;;;8.56;54.67;101149.75;5055302;28;45402;-56
2022/03/09 04:25:17;;;;;;;;;65.00;50.00;;;;;8.51;54.40;101148.97;5056326;28;46192;-56
2022/03/09 04:27:42;;;;;;;;;65.50;50.25;;;;;8.45;53.27;101149.97;5062285;28;45434;-56
2022/03/09 04:30:09;;;;;;;;;75.50;57.00;;;;;8.39;52.50;101150.94;5062361;28;45370;-60
2022/03/09 04:32:34;;;;;;;;;70.50;56.75;;;;;8.27;52.78;101145.84;5062426;28;45523;-58
2022/03/09 04:35:01;;;;;;;;;73.25;58.25;;;;;8.23;52.31;101144.19;5061684;27;46087;-59
2022/03/09 04:37:30;;;;;;;;;75.50;58.75;;;;;8.27;52.36;101147.63;5065575;27;45471;-53
2022/03/09 04:39:57;;;;;;;;;66.25;53.25;;;;;8.24;52.82;101151.16;5062242;28;45389;-58
2022/03/09 04:42:22;;;;;;;;;68.25;55.00;;;;;8.23;52.00;101148.56;5070006;28;45510;-58
2022/03/09 04:44:48;;;;;;;;;66.75;55.50;;;;;8.22;52.86;101146.81;5075260;27;46089;-59
2022/03/09 04:47:13;;;;;;;;;68.50;54.25;;;;;8.21;52.67;101150.34;5078043;27;45617;-55
2022/03/09 04:49:38;;;;;;;;;69.50;55.50;;;;;8.19;52.71;101151.25;5062906;28;45386;-54
2022/03/09 04:52:04;;;;;;;;;67.50;56.50;;;;;8.22;52.99;101159.94;5065670;28;45432;-56
2022/03/09 04:54:29;;;;;;;;;71.25;55.50;;;;;8.21;52.25;101160.84;5062035;28;45531;-58
2022/03/09 04:56:55;;;;;;;;;71.00;56.50;;;;;8.20;52.49;101167.84;5077659;27;45444;-57
2022/03/09 04:59:20;;;;;;;;;71.75;56.75;;;;;8.23;52.25;101164.31;5062540;28;46007;-55
2022/03/09 05:01:45;;;;;;;;;74.75;58.00;;;;;8.21;52.61;101166.94;5061953;27;48629;-60
2022/03/09 05:04:11;;;;;;;;;70.50;58.00;;;;;8.21;52.33;101166.94;5079139;27;49072;-61
2022/03/09 05:06:36;;;;;;;;;72.25;57.75;;;;;8.18;52.86;101174.84;5079225;28;45378;-55
2022/03/09 05:09:02;;;;;;;;;62.75;52.50;;;;;8.12;52.64;101173.19;5082154;28;45430;-58
2022/03/09 05:11:27;;;;;;;;;71.75;54.50;;;;;8.09;52.84;101180.25;5081580;27;45518;-58
2022/03/09 05:13:52;;;;;;;;;66.50;52.25;;;;;8.04;52.73;101182.06;5081853;28;48396;-59
2022/03/09 05:16:18;;;;;;;;;66.50;53.00;;;;;7.99;53.33;101176.91;5072727;27;45383;-58
2022/03/09 05:18:43;;;;;;;;;65.50;53.50;;;;;7.91;54.55;101181.38;5076478;28;45400;-60
2022/03/09 05:21:09;;;;;;;;;68.00;52.75;;;;;7.83;53.83;101189.34;5061673;28;45618;-60
2022/03/09 05:23:34;;;;;;;;;65.25;53.25;;;;;7.84;54.45;101193.69;5061531;28;45477;-58
2022/03/09 05:26:00;;;;;;;;;66.25;53.00;;;;;7.81;54.12;101185.03;5061703;28;45477;-56
2022/03/09 05:28:25;;;;;;;;;65.25;52.25;;;;;7.80;54.27;101196.41;5061475;28;45371;-60
2022/03/09 05:30:51;;;;;;;;;66.50;53.00;;;;;7.81;54.73;101204.22;5062674;28;45531;-58
2022/03/09 05:33:16;;;;;;;;;63.50;52.00;;;;;7.79;54.34;101199.88;5073134;28;45672;-59
2022/03/09 05:35:41;;;;;;;;;57.00;48.25;;;;;7.79;54.78;101207.72;5071310;28;45374;-52
2022/03/09 05:38:06;;;;;;;;;63.00;51.50;;;;;7.77;54.92;101202.53;5058507;27;45423;-57
2022/03/09 05:40:32;;;;;;;;;63.00;51.00;;;;;7.73;54.74;101201.69;5058164;28;45368;-55
2022/03/09 05:42:57;;;;;;;;;61.00;49.25;;;;;7.74;54.59;101200.81;5073626;27;47082;-55
2022/03/09 05:45:23;;;;;;;;;59.25;47.50;;;;;7.78;54.14;101211.25;5060522;27;45466;-55
2022/03/09 05:47:48;;;;;;;;;65.00;51.50;;;;;7.78;54.61;101226.97;5058236;27;45458;-56
2022/03/09 05:50:14;;;;;;;;;63.00;52.00;;;;;7.75;54.40;101225.25;5058445;28;45655;-55
2022/03/09 05:52:39;;;;;;;;;59.00;47.75;;;;;7.69;54.37;101231.44;5076615;28;45418;-56
2022/03/09 05:55:05;;;;;;;;;68.75;51.25;;;;;7.67;54.70;101235.81;5057341;28;46171;-58
2022/03/09 05:57:31;;;;;;;;;63.25;51.75;;;;;7.67;54.74;101238.44;5057677;28;45394;-56
2022/03/09 05:59:56;;;;;;;;;61.25;48.00;;;;;7.65;54.71;101237.59;5065234;28;45628;-58
2022/03/09 06:02:22;;;;;;;;;58.75;49.00;;;;;7.60;54.77;101228.06;5070189;28;45611;-55
2022/03/09 06:04:47;;;;;;;;;59.25;50.00;;;;;7.61;55.06;101233.28;5078004;28;45533;-57
2022/03/09 06:07:12;;;;;;;;;62.75;49.50;;;;;7.60;55.50;101234.16;5073630;28;45996;-64
2022/03/09 06:09:38;;;;;;;;;56.50;45.00;;;;;7.63;54.79;101241.09;5072510;28;45625;-62
2022/03/09 06:12:04;;;;;;;;;60.75;49.25;;;;;7.62;54.97;101242.88;5056902;28;45362;-56
2022/03/09 06:14:29;;;;;;;;;60.75;49.50;;;;;7.59;54.57;101239.44;5072390;27;45910;-57
2022/03/09 06:16:54;;;;;;;;;61.75;49.25;;;;;7.56;55.47;101237.72;5069386;28;45509;-59
2022/03/09 06:19:20;;;;;;;;;58.25;45.00;;;;;7.52;54.85;101234.28;5072172;27;45300;-55
2022/03/09 06:21:45;;;;;;;;;58.50;47.00;;;;;7.53;54.93;101241.25;5065643;27;45491;-57
2022/03/09 06:24:12;;;;;;;;;63.75;51.75;;;;;7.50;55.35;101229.94;5066790;27;45468;-55
2022/03/09 06:26:37;;;;;;;;;64.75;50.25;;;;;7.45;55.74;101230.00;5061763;28;45434;-60
2022/03/09 06:29:04;;;;;;;;;58.75;48.00;;;;;7.45;56.19;101235.22;5076271;27;45368;-57
2022/03/09 06:31:30;;;;;;;;;46.50;41.50;;;;;7.41;56.07;101241.38;5059141;28;46074;-63
2022/03/09 06:33:56;;;;;;;;;59.75;49.75;;;;;7.42;56.82;101247.50;5057081;27;45504;-62
2022/03/09 06:36:21;;;;;;;;;47.00;42.25;;;;;7.41;56.07;101241.38;5056962;28;45442;-61
2022/03/09 06:38:47;;;;;;;;;59.50;46.75;;;;;7.44;56.63;101251.84;5056920;28;45453;-62
2022/03/09 06:41:12;;;;;;;;;59.50;49.75;;;;;7.45;57.04;101247.47;5057121;28;46050;-62
2022/03/09 06:43:38;;;;;;;;;61.00;48.50;;;;;7.43;57.19;101246.59;5069089;28;45573;-62
2022/03/09 06:46:04;;;;;;;;;55.50;47.25;;;;;7.41;56.84;101250.97;5063348;27;45556;-62
2022/03/09 06:48:29;;;;;;;;;59.25;47.75;;;;;7.38;56.61;101251.03;5056803;28;45360;-62
2022/03/09 06:50:55;;;;;;;;;54.75;45.50;;;;;7.36;57.76;101260.63;5056429;27;46474;-62
2022/03/09 06:53:20;;;;;;;;;56.25;47.00;;;;;7.37;57.06;101262.38;5055813;28;52705;-62
2022/03/09 06:55:45;;;;;;;;;58.00;47.50;;;;;7.37;57.51;101257.16;5063597;28;45511;-61
2022/03/09 06:58:10;;;;;;;;;61.25;48.75;;;;;7.37;57.29;101257.16;5060299;28;45379;-62
2022/03/09 07:00:36;;;;;;;;;59.75;50.50;;;;;7.36;56.75;101247.56;5056663;28;45437;-62
2022/03/09 07:03:03;;;;;;;;;65.00;52.25;;;;;7.40;56.84;101251.88;5057760;27;45541;-63
2022/03/09 07:05:28;;;;;;;;;62.75;50.50;;;;;7.34;57.27;101249.34;5056538;28;45427;-62
2022/03/09 07:07:54;;;;;;;;;60.50;49.00;;;;;7.33;57.20;101266.75;5067451;28;45403;-61
2022/03/09 07:10:19;;;;;;;;;60.50;48.50;;;;;7.40;57.88;101270.19;5065222;28;51221;-61
2022/03/09 07:12:46;;;;;;;;;60.00;50.50;;;;;7.34;57.63;101267.66;5056284;28;45515;-60
2022/03/09 07:15:12;;;;;;;;;58.00;49.25;;;;;7.35;58.01;101272.00;5064067;28;45583;-62
2022/03/09 07:17:38;;;;;;;;;63.00;48.75;;;;;7.42;58.41;101279.75;5057851;28;45428;-62
2022/03/09 07:20:05;;;;;;;;;56.50;48.00;;;;;7.40;59.06;101280.66;5058217;28;45444;-62
2022/03/09 07:22:30;;;;;;;;;58.00;45.25;;;;;7.38;59.73;101278.06;5071862;28;45635;-63
2022/03/09 07:24:55;;;;;;;;;53.50;45.75;;;;;7.36;60.02;101292.94;5066206;28;45429;-62
2022/03/09 07:27:21;;;;;;;;;57.50;46.75;;;;;7.43;59.08;101286.72;5075080;28;45355;-62
2022/03/09 07:29:46;;;;;;;;;59.50;48.75;;;;;7.56;58.81;101294.44;5063721;28;45454;-62
2022/03/09 07:32:14;;;;;;;;;58.00;45.75;;;;;7.59;59.14;101297.88;5059455;28;45861;-63
2022/03/09 07:34:40;;;;;;;;;59.75;49.25;;;;;7.62;58.71;101302.22;5056955;28;45541;-63
2022/03/09 07:37:05;;;;;;;;;52.75;40.75;;;;;7.67;58.40;101300.41;5069315;28;45530;-63
2022/03/09 07:39:31;;;;;;;;;51.50;44.50;;;;;7.69;58.43;101294.28;5068922;28;45912;-62
2022/03/09 07:41:57;;;;;;;;;59.50;49.00;;;;;7.73;58.05;101295.09;5058950;28;45526;-62
2022/03/09 07:44:23;;;;;;;;;56.00;42.00;;;;;7.79;57.87;101305.50;5067355;28;45509;-62
2022/03/09 07:46:49;;;;;;;;;58.50;48.00;;;;;7.78;58.25;101305.53;5066049;28;45718;-62
2022/03/09 07:49:15;;;;;;;;;60.50;48.50;;;;;7.79;58.72;101302.91;5066967;27;46001;-62
2022/03/09 07:51:41;;;;;;;;;61.25;49.00;;;;;7.83;58.29;101311.56;5057309;28;45562;-63
2022/03/09 07:54:06;;;;;;;;;56.25;44.75;;;;;7.82;58.77;101305.47;5064452;28;45453;-62
2022/03/09 07:56:34;;;;;;;;;46.50;42.50;;;;;7.86;58.98;101317.63;5055911;28;45401;-62
2022/03/09 07:59:00;;;;;;;;;58.00;50.00;;;;;7.81;59.84;101313.34;5055300;28;45594;-62
2022/03/09 08:01:25;;;;;;;;;56.00;45.00;;;;;7.80;59.65;101322.09;5053100;28;45521;-62
2022/03/09 08:03:51;;;;;;;;;59.00;49.25;;;;;7.87;59.54;101322.00;5054066;28;45478;-62
2022/03/09 08:06:16;;;;;;;;;58.75;46.75;;;;;7.84;60.47;101318.53;5055400;28;45392;-62
2022/03/09 08:08:41;;;;;;;;;58.00;48.00;;;;;7.90;59.50;101331.56;5054927;28;46013;-62
2022/03/09 08:11:07;;;;;;;;;58.00;45.75;;;;;7.89;60.24;101327.19;5055049;28;45387;-62
2022/03/09 08:13:32;;;;;;;;;56.25;48.75;;;;;7.94;60.21;101339.34;5053471;28;45418;-61
2022/03/09 08:15:58;;;;;;;;;59.75;48.25;;;;;7.94;59.40;101335.88;5053866;28;45422;-61
2022/03/09 08:18:23;;;;;;;;;48.75;41.25;;;;;8.00;59.18;101327.06;5054874;28;46081;-61
2022/03/09 08:20:49;;;;;;;;;55.00;43.75;;;;;8.05;59.35;101327.88;5055212;28;45458;-62
2022/03/09 08:23:14;;;;;;;;;60.50;50.25;;;;;8.10;59.19;101328.69;5054982;28;45555;-62
2022/03/09 08:25:40;;;;;;;;;57.50;48.00;;;;;8.13;59.22;101332.09;5055041;28;45720;-62
2022/03/09 08:28:05;;;;;;;;;54.25;45.50;;;;;8.19;59.28;101325.91;5053398;28;48148;-62
2022/03/09 08:30:30;;;;;;;;;58.75;48.00;;;;;8.22;59.68;101325.91;5055486;27;45496;-62
2022/03/09 08:32:56;;;;;;;;;55.25;44.25;;;;;8.17;60.50;101327.72;5055358;28;45489;-62
2022/03/09 08:35:21;;;;;;;;;55.00;47.25;;;;;8.24;60.65;101344.19;5053707;28;45387;-62
2022/03/09 08:37:46;;;;;;;;;51.25;41.75;;;;;8.23;60.88;101340.72;5054730;28;45919;-61
2022/03/09 08:40:12;;;;;;;;;58.25;46.75;;;;;8.25;61.29;101345.94;5054773;28;45466;-62
2022/03/09 08:42:39;;;;;;;;;50.00;42.00;;;;;8.29;60.85;101342.38;5053440;28;45415;-61
2022/03/09 08:45:04;;;;;;;;;47.50;40.50;;;;;8.36;61.10;101334.44;5054871;28;45521;-61
2022/03/09 08:47:30;;;;;;;;;52.00;43.25;;;;;8.46;60.66;101340.41;5054829;28;45755;-62
2022/03/09 08:49:57;;;;;;;;;43.00;40.00;;;;;8.48;61.29;101340.41;5054424;28;45533;-62
2022/03/09 08:52:23;;;;;;;;;43.00;38.25;;;;;8.49;62.54;101345.63;5054771;28;45469;-62
2022/03/09 08:54:53;;;;;;;;;47.75;38.50;;;;;8.52;62.34;101336.88;5054352;28;45423;-62
2022/03/09 08:57:19;;;;;;;;;32.75;29.50;;;;;8.57;61.49;101335.91;5054518;28;45499;-62
2022/03/09 08:59:45;;;;;;;;;48.50;41.00;;;;;8.61;62.30;101336.72;5054530;28;45428;-62
2022/03/09 09:02:10;;;;;;;;;49.00;42.25;;;;;8.64;62.82;101339.28;5054830;28;45443;-62
2022/03/09 09:04:36;;;;;;;;;49.25;43.00;;;;;8.65;62.19;101338.41;5054457;28;45375;-62
2022/03/09 09:07:02;;;;;;;;;43.50;40.75;;;;;8.66;63.15;101337.50;5054188;28;45887;-63
2022/03/09 09:09:27;;;;;;;;;49.50;41.50;;;;;8.69;62.31;101339.22;5054348;28;45448;-63
2022/03/09 09:11:54;;;;;;;;;54.25;43.50;;;;;8.80;61.95;101332.91;5054280;28;45801;-62
2022/03/09 09:14:19;;;;;;;;;50.75;42.00;;;;;8.88;61.27;101332.78;5057191;28;45517;-62
2022/03/09 09:16:45;;;;;;;;;46.25;40.00;;;;;8.90;62.71;101338.88;5073362;28;47931;-62
2022/03/09 09:19:10;;;;;;;;;44.50;39.25;;;;;8.91;62.76;101331.88;5057738;28;45367;-63
2022/03/09 09:21:36;;;;;;;;;44.50;40.25;;;;;9.00;61.73;101335.22;5057894;28;45472;-63
2022/03/09 09:24:01;;;;;;;;;46.00;37.25;;;;;9.07;63.03;101336.81;5057862;28;45653;-62
2022/03/09 09:26:27;;;;;;;;;41.75;37.75;;;;;9.07;62.51;101336.81;5057738;28;46290;-63
2022/03/09 09:28:52;;;;;;;;;37.50;33.75;;;;;9.14;63.66;101324.47;5057653;28;45453;-63
2022/03/09 09:31:17;;;;;;;;;40.75;38.75;;;;;9.17;64.73;101326.19;5057751;28;45458;-62
2022/03/09 09:33:43;;;;;;;;;34.25;31.00;;;;;9.14;65.81;101323.63;5073087;27;45308;-63
2022/03/09 09:36:08;;;;;;;;;33.00;32.75;;;;;9.11;65.22;101319.28;5057538;28;45401;-63
2022/03/09 09:38:33;;;;;;;;;35.50;30.75;;;;;9.19;64.67;101320.00;5057657;28;45414;-63
2022/03/09 09:40:59;;;;;;;;;34.75;27.50;;;;;9.32;64.16;101322.38;5057529;28;45434;-63
2022/03/09 09:43:24;;;;;;;;;29.00;27.75;;;;;9.38;64.52;101309.19;5057319;28;45654;-63
2022/03/09 09:45:51;;;;;;;;;29.50;27.75;;;;;9.41;63.78;101317.84;5057236;28;45429;-62
2022/03/09 09:48:19;;;;;;;;;25.00;24.00;;;;;9.41;64.94;101309.97;5057355;28;45395;-63
2022/03/09 09:50:45;;;;;;;;;29.25;27.00;;;;;9.51;64.21;101300.16;5057416;28;45373;-63
2022/03/09 09:53:13;;;;;;;;;33.50;30.00;;;;;9.60;64.34;101304.38;5072680;28;45602;-62
2022/03/09 09:55:39;;;;;;;;;21.50;21.50;;;;;9.65;63.96;101292.88;5056994;28;45413;-63
2022/03/09 09:58:05;;;;;;;;;29.50;26.25;;;;;9.71;65.21;101305.88;5056837;28;45539;-63
2022/03/09 10:00:31;;;;;;;;;26.75;22.25;;;;;9.76;64.70;101294.41;5057176;27;45546;-63
2022/03/09 10:02:58;;;;;;;;;26.00;21.00;;;;;9.84;63.90;101295.97;5057242;28;45458;-63
2022/03/09 10:05:24;;;;;;;;;27.25;23.50;;;;;9.91;64.78;101300.22;5056876;28;45993;-62
2022/03/09 10:08:05;;;;;;;;;24.25;22.25;;;;;10.05;64.09;101299.06;5056943;28;45966;-62
2022/03/09 10:10:41;;;;;;;;;25.50;22.25;;;;;10.29;63.79;101305.53;5057082;28;45480;-62
2022/03/09 10:13:10;;;;;;;;;24.00;23.00;;;;;10.45;62.88;101293.78;5056970;28;45455;-63
2022/03/09 10:15:37;;;;;;;;;23.75;23.75;;;;;10.45;62.96;101300.78;5057007;28;47158;-63
2022/03/09 10:18:15;;;;;;;;;18.75;18.25;;;;;10.35;62.67;101298.38;5056876;28;45466;-63
2022/03/09 10:20:42;;;;;;;;;22.00;18.50;;;;;10.38;62.75;101302.69;5057274;28;45429;-62
2022/03/09 10:23:08;;;;;;;;;33.50;30.75;;;;;10.44;63.55;101293.81;5056837;28;45371;-63
2022/03/09 10:25:34;;;;;;;;;26.25;23.00;;;;;10.55;62.56;101300.53;5071805;28;47247;-63
2022/03/09 10:28:06;;;;;;;;;28.25;26.75;;;;;10.84;62.37;101291.06;5056776;28;45410;-63
2022/03/09 10:30:37;;;;;;;;;29.00;26.50;;;;;11.19;60.55;101295.41;5057063;28;45469;-63
2022/03/09 10:33:08;;;;;;;;;28.50;26.00;;;;;11.26;60.24;101290.84;5056844;28;45451;-63
2022/03/09 10:35:33;;;;;;;;;25.25;24.00;;;;;11.24;60.03;101290.03;5056694;28;45453;-63
2022/03/09 10:38:04;;;;;;;;;26.75;26.25;;;;;11.24;59.96;101292.66;5056624;28;45423;-63
2022/03/09 10:40:32;;;;;;;;;22.00;20.25;;;;;11.20;59.95;101289.25;5072572;27;45502;-63
2022/03/09 10:43:20;;;;;;;;;23.00;21.00;;;;;11.13;60.84;101281.56;5056930;28;45460;-62
2022/03/09 10:46:00;;;;;;;;;24.00;20.50;;;;;11.12;60.06;101280.66;5056552;28;46186;-63
2022/03/09 10:49:00;;;;;;;;;16.00;16.00;;;;;11.07;60.70;101279.94;5056433;27;45467;-63
2022/03/09 10:51:41;;;;;;;;;13.75;12.75;;;;;11.11;60.63;101281.59;5056806;28;45599;-63
2022/03/09 10:54:08;;;;;;;;;15.00;14.25;;;;;11.13;59.98;101285.06;5056630;28;45518;-63
2022/03/09 10:56:34;;;;;;;;;18.75;16.75;;;;;11.14;60.09;101281.50;5056312;28;45427;-63
2022/03/09 10:59:18;;;;;;;;;18.50;17.25;;;;;11.18;60.10;101284.94;5056367;28;45499;-63
2022/03/09 11:02:01;;;;;;;;;13.25;10.75;;;;;11.15;60.33;101282.34;5056642;28;45508;-63
2022/03/09 11:04:27;;;;;;;;;12.00;12.00;;;;;11.18;59.64;101298.09;5056420;28;45526;-63
2022/03/09 11:06:54;;;;;;;;;14.75;11.50;;;;;11.20;60.32;101291.88;5056000;28;45473;-63
2022/03/09 11:09:19;;;;;;;;;34.25;33.25;;;;;11.24;59.14;101293.50;5054548;28;45571;-63
2022/03/09 11:11:48;;;;;;;;;14.50;13.50;;;;;11.20;59.60;101280.47;5056031;28;45609;-64
2022/03/09 11:14:15;;;;;;;;;15.00;15.00;;;;;11.27;59.05;101284.66;5068126;28;45623;-62